createdAt,value
2018-12-29T00:00:17.910Z,70.10
2018-12-29T00:01:17.823Z,80.10
2018-12-29T00:02:17.737Z,71.60
2018-12-29T00:03:17.648Z,77.60
2018-12-29T00:04:17.573Z,72.10
2018-12-29T00:05:17.737Z,73.30
2018-12-29T00:06:17.399Z,77.10
2018-12-29T00:07:17.311Z,75.20
2018-12-29T00:08:17.236Z,67.80
2018-12-29T00:09:17.149Z,68.90
2018-12-29T00:10:17.061Z,76.50
2018-12-29T00:11:16.975Z,84.90
2018-12-29T00:12:16.887Z,79.20
2018-12-29T00:13:16.812Z,81.10
2018-12-29T00:14:16.725Z,86.40
2018-12-29T00:15:16.651Z,74.50
2018-12-29T00:16:16.549Z,71.00
2018-12-29T00:17:16.464Z,82.60
2018-12-29T00:18:16.387Z,66.00
2018-12-29T00:19:16.300Z,67.60
2018-12-29T00:20:16.213Z,64.10
2018-12-29T00:21:16.126Z,71.90
2018-12-29T00:22:16.050Z,65.40
2018-12-29T00:23:15.963Z,69.50
2018-12-29T00:24:15.878Z,70.30
2018-12-29T00:25:15.788Z,67.10
2018-12-29T00:26:15.702Z,67.30
2018-12-29T00:27:15.628Z,77.50
2018-12-29T00:28:15.538Z,78.90
2018-12-29T00:29:15.452Z,76.40
2018-12-29T00:30:15.364Z,85.90
2018-12-29T00:31:15.277Z,74.50
2018-12-29T00:32:15.202Z,72.30
2018-12-29T00:33:15.115Z,82.20
2018-12-29T00:34:15.027Z,71.30
2018-12-29T00:35:14.939Z,58.60
2018-12-29T00:36:14.865Z,73.80
2018-12-29T00:37:14.778Z,75.40
2018-12-29T00:38:14.705Z,76.20
2018-12-29T00:39:14.605Z,69.80
2018-12-29T00:40:14.515Z,70.60
2018-12-29T00:41:14.443Z,63.80
2018-12-29T00:42:14.354Z,71.00
2018-12-29T00:43:14.265Z,70.60
2018-12-29T00:44:14.178Z,73.90
2018-12-29T00:45:14.092Z,71.80
2018-12-29T00:46:14.016Z,70.80
2018-12-29T00:47:13.929Z,67.00
2018-12-29T00:48:13.841Z,77.00
2018-12-29T00:49:13.754Z,65.00
2018-12-29T00:50:13.685Z,71.40
2018-12-29T00:51:13.592Z,82.20
2018-12-29T00:52:13.504Z,88.30
2018-12-29T00:53:13.416Z,73.40
2018-12-29T00:54:13.330Z,81.40
2018-12-29T00:55:13.254Z,73.30
2018-12-29T00:56:13.167Z,74.20
2018-12-29T00:57:13.083Z,86.40
2018-12-29T00:58:12.992Z,74.00
2018-12-29T00:59:12.906Z,70.70
2018-12-29T01:00:12.833Z,67.20
2018-12-29T01:01:12.746Z,78.30
2018-12-29T01:02:12.655Z,71.90
2018-12-29T01:03:12.568Z,79.90
2018-12-29T01:04:12.493Z,74.00
2018-12-29T01:05:12.406Z,79.50
2018-12-29T01:06:12.321Z,69.30
2018-12-29T01:07:12.242Z,66.00
2018-12-29T01:08:12.143Z,70.90
2018-12-29T01:09:12.082Z,74.00
2018-12-29T01:10:12.283Z,77.80
2018-12-29T01:11:11.894Z,78.40
2018-12-29T01:12:11.806Z,80.80
2018-12-29T01:13:11.720Z,79.60
2018-12-29T01:14:11.644Z,74.80
2018-12-29T01:15:11.557Z,76.20
2018-12-29T01:16:11.469Z,79.80
2018-12-29T01:17:11.384Z,81.10
2018-12-29T01:18:11.308Z,74.80
2018-12-29T01:19:11.221Z,80.10
2018-12-29T01:20:11.134Z,92.10
2018-12-29T01:21:11.045Z,84.40
2018-12-29T01:22:10.962Z,85.70
2018-12-29T01:23:10.883Z,75.80
2018-12-29T01:24:10.795Z,87.90
2018-12-29T01:25:10.709Z,76.50
2018-12-29T01:26:10.622Z,82.20
2018-12-29T01:27:10.545Z,79.20
2018-12-29T01:28:10.458Z,86.20
2018-12-29T01:29:10.371Z,82.50
2018-12-29T01:30:10.284Z,85.00
2018-12-29T01:31:10.196Z,77.60
2018-12-29T01:32:10.122Z,84.10
2018-12-29T01:33:10.035Z,78.60
2018-12-29T01:34:09.950Z,78.00
2018-12-29T01:35:09.860Z,98.70
2018-12-29T01:36:09.773Z,78.10
2018-12-29T01:37:09.696Z,79.50
2018-12-29T01:38:09.609Z,88.80
2018-12-29T01:39:09.523Z,89.10
2018-12-29T01:40:09.435Z,79.40
2018-12-29T01:41:09.361Z,87.90
2018-12-29T01:42:09.272Z,82.10
2018-12-29T01:43:09.185Z,81.90
2018-12-29T01:44:09.097Z,82.00
2018-12-29T01:45:09.022Z,82.10
2018-12-29T01:46:08.935Z,88.20
2018-12-29T01:47:08.850Z,87.90
2018-12-29T01:48:08.761Z,84.80
2018-12-29T01:49:08.674Z,89.70
2018-12-29T01:50:08.599Z,84.30
2018-12-29T01:51:08.511Z,92.20
2018-12-29T01:52:08.423Z,88.40
2018-12-29T01:53:08.337Z,94.90
2018-12-29T01:54:08.263Z,98.70
2018-12-29T01:55:08.176Z,85.90
2018-12-29T01:56:08.089Z,91.20
2018-12-29T01:57:07.999Z,103.10
2018-12-29T01:58:07.912Z,87.00
2018-12-29T01:59:07.840Z,95.70
2018-12-29T02:00:08.000Z,106.40
2018-12-29T02:01:07.663Z,93.50
2018-12-29T02:02:07.578Z,89.00
2018-12-29T02:03:07.488Z,92.60
2018-12-29T02:04:07.413Z,94.00
2018-12-29T02:05:07.324Z,84.40
2018-12-29T02:06:07.241Z,86.70
2018-12-29T02:07:07.163Z,87.60
2018-12-29T02:08:07.064Z,82.00
2018-12-29T02:09:06.988Z,94.80
2018-12-29T02:10:06.902Z,95.40
2018-12-29T02:11:06.814Z,91.40
2018-12-29T02:12:06.726Z,91.00
2018-12-29T02:13:06.651Z,84.10
2018-12-29T02:14:06.565Z,94.80
2018-12-29T02:15:06.477Z,90.60
2018-12-29T02:16:06.390Z,78.70
2018-12-29T02:17:06.315Z,87.00
2018-12-29T02:18:06.226Z,81.80
2018-12-29T02:19:06.145Z,91.30
2018-12-29T02:20:06.052Z,82.10
2018-12-29T02:21:05.964Z,84.90
2018-12-29T02:22:05.889Z,71.10
2018-12-29T02:23:05.803Z,76.10
2018-12-29T02:24:05.716Z,78.10
2018-12-29T02:25:05.927Z,84.00
2018-12-29T02:26:05.541Z,80.00
2018-12-29T02:27:05.465Z,86.40
2018-12-29T02:28:05.377Z,85.60
2018-12-29T02:29:05.292Z,82.70
2018-12-29T02:30:05.218Z,82.90
2018-12-29T02:31:05.130Z,75.40
2018-12-29T02:32:05.045Z,70.20
2018-12-29T02:33:04.957Z,82.30
2018-12-29T02:34:04.866Z,79.60
2018-12-29T02:35:04.778Z,72.10
2018-12-29T02:36:04.715Z,71.90
2018-12-29T02:37:04.617Z,72.00
2018-12-29T02:38:04.528Z,86.50
2018-12-29T02:39:04.448Z,83.70
2018-12-29T02:40:04.355Z,71.10
2018-12-29T02:41:04.278Z,81.60
2018-12-29T02:42:04.192Z,75.00
2018-12-29T02:43:04.118Z,72.60
2018-12-29T02:44:04.017Z,70.70
2018-12-29T02:45:03.948Z,80.50
2018-12-29T02:46:03.854Z,94.20
2018-12-29T02:47:03.770Z,86.10
2018-12-29T02:48:03.678Z,75.70
2018-12-29T02:49:03.593Z,77.10
2018-12-29T02:50:03.518Z,75.60
2018-12-29T02:51:03.430Z,77.50
2018-12-29T02:52:03.349Z,79.70
2018-12-29T02:53:03.270Z,76.90
2018-12-29T02:54:03.181Z,77.30
2018-12-29T02:55:03.092Z,80.90
2018-12-29T02:56:03.063Z,73.20
2018-12-29T02:57:02.920Z,78.00
2018-12-29T02:58:02.831Z,65.30
2018-12-29T02:59:02.755Z,71.30
2018-12-29T03:00:02.676Z,77.60
2018-12-29T03:01:02.583Z,82.40
2018-12-29T03:02:02.496Z,84.30
2018-12-29T03:03:02.408Z,87.50
2018-12-29T03:04:02.331Z,73.50
2018-12-29T03:05:02.243Z,71.20
2018-12-29T03:06:02.157Z,78.40
2018-12-29T03:07:02.069Z,71.30
2018-12-29T03:08:01.996Z,70.30
2018-12-29T03:09:01.908Z,76.50
2018-12-29T03:10:01.832Z,75.90
2018-12-29T03:11:01.773Z,69.30
2018-12-29T03:12:01.656Z,72.60
2018-12-29T03:13:01.570Z,75.50
2018-12-29T03:14:01.483Z,74.30
2018-12-29T03:15:01.399Z,66.00
2018-12-29T03:16:01.307Z,71.20
2018-12-29T03:17:01.232Z,69.70
2018-12-29T03:18:01.146Z,71.40
2018-12-29T03:19:01.059Z,70.70
2018-12-29T03:20:00.971Z,69.70
2018-12-29T03:21:00.886Z,67.10
2018-12-29T03:22:00.808Z,69.50
2018-12-29T03:23:00.721Z,69.50
2018-12-29T03:24:00.633Z,73.90
2018-12-29T03:25:00.549Z,64.00
2018-12-29T03:26:00.473Z,65.60
2018-12-29T03:27:00.385Z,62.00
2018-12-29T03:28:00.297Z,63.20
2018-12-29T03:29:00.210Z,72.00
2018-12-29T03:30:00.228Z,73.10
2018-12-29T03:31:00.049Z,69.40
2018-12-29T03:31:59.980Z,68.30
2018-12-29T03:32:59.876Z,71.60
2018-12-29T03:33:59.784Z,73.80
2018-12-29T03:35:00.011Z,72.70
2018-12-29T03:35:59.638Z,72.50
2018-12-29T03:36:59.534Z,64.70
2018-12-29T03:37:59.448Z,67.70
2018-12-29T03:38:59.374Z,66.30
2018-12-29T03:39:59.285Z,69.60
2018-12-29T03:40:59.197Z,70.20
2018-12-29T03:41:59.111Z,69.90
2018-12-29T03:42:59.035Z,63.50
2018-12-29T03:43:58.950Z,70.50
2018-12-29T03:44:58.874Z,73.20
2018-12-29T03:45:58.774Z,72.30
2018-12-29T03:46:58.690Z,76.70
2018-12-29T03:47:58.600Z,69.40
2018-12-29T03:48:58.524Z,69.60
2018-12-29T03:49:58.436Z,74.00
2018-12-29T03:50:58.349Z,64.70
2018-12-29T03:51:58.261Z,70.60
2018-12-29T03:52:58.188Z,74.00
2018-12-29T03:53:58.100Z,64.80
2018-12-29T03:54:58.012Z,81.50
2018-12-29T03:55:57.925Z,66.60
2018-12-29T03:56:57.838Z,74.20
2018-12-29T03:57:57.763Z,70.80
2018-12-29T03:58:57.677Z,70.90
2018-12-29T03:59:57.939Z,70.40
2018-12-29T04:00:57.502Z,84.60
2018-12-29T04:01:57.426Z,67.80
2018-12-29T04:02:57.337Z,72.30
2018-12-29T04:03:57.254Z,76.30
2018-12-29T04:04:57.163Z,70.40
2018-12-29T04:05:57.089Z,82.90
2018-12-29T04:06:57.001Z,74.20
2018-12-29T04:07:56.912Z,82.00
2018-12-29T04:08:56.827Z,91.20
2018-12-29T04:09:56.989Z,74.80
2018-12-29T04:10:56.679Z,75.90
2018-12-29T04:11:56.584Z,77.10
2018-12-29T04:12:56.488Z,82.20
2018-12-29T04:13:56.401Z,74.40
2018-12-29T04:14:56.314Z,75.70
2018-12-29T04:15:58.246Z,73.70
2018-12-29T04:16:56.158Z,74.40
2018-12-29T04:17:56.066Z,90.90
2018-12-29T04:18:55.977Z,82.80
2018-12-29T04:19:55.892Z,82.20
2018-12-29T04:20:55.815Z,77.80
2018-12-29T04:21:55.728Z,84.20
2018-12-29T04:22:55.640Z,95.40
2018-12-29T04:23:55.558Z,88.20
2018-12-29T04:24:55.778Z,82.60
2018-12-29T04:25:55.389Z,77.70
2018-12-29T04:26:55.304Z,77.50
2018-12-29T04:27:55.228Z,83.20
2018-12-29T04:28:55.142Z,85.90
2018-12-29T04:29:55.058Z,79.60
2018-12-29T04:30:54.977Z,83.90
2018-12-29T04:31:54.879Z,92.50
2018-12-29T04:32:54.791Z,81.40
2018-12-29T04:33:54.717Z,74.40
2018-12-29T04:34:54.629Z,88.20
2018-12-29T04:35:54.541Z,83.20
2018-12-29T04:36:54.455Z,87.20
2018-12-29T04:37:54.367Z,87.40
2018-12-29T04:38:54.291Z,80.70
2018-12-29T04:39:54.205Z,78.20
2018-12-29T04:40:54.117Z,78.50
2018-12-29T04:41:54.032Z,86.30
2018-12-29T04:42:53.954Z,85.60
2018-12-29T04:43:53.867Z,82.30
2018-12-29T04:44:54.030Z,84.40
2018-12-29T04:45:53.692Z,81.00
2018-12-29T04:46:53.618Z,92.00
2018-12-29T04:47:53.530Z,96.20
2018-12-29T04:48:53.444Z,84.70
2018-12-29T04:49:53.356Z,81.60
2018-12-29T04:50:53.268Z,78.10
2018-12-29T04:51:53.185Z,100.80
2018-12-29T04:52:53.107Z,92.60
2018-12-29T04:53:53.022Z,85.90
2018-12-29T04:54:52.933Z,87.90
2018-12-29T04:55:52.844Z,78.10
2018-12-29T04:56:52.768Z,83.80
2018-12-29T04:57:52.682Z,77.40
2018-12-29T04:58:52.595Z,79.20
2018-12-29T04:59:52.857Z,74.00
2018-12-29T05:00:52.420Z,86.90
2018-12-29T05:01:52.343Z,95.90
2018-12-29T05:02:52.260Z,83.10
2018-12-29T05:03:52.169Z,93.30
2018-12-29T05:04:52.083Z,83.50
2018-12-29T05:05:52.007Z,93.30
2018-12-29T05:06:51.919Z,86.10
2018-12-29T05:07:51.836Z,90.90
2018-12-29T05:08:51.748Z,74.10
2018-12-29T05:09:51.659Z,82.40
2018-12-29T05:10:51.583Z,82.00
2018-12-29T05:11:51.494Z,79.20
2018-12-29T05:12:51.408Z,75.50
2018-12-29T05:13:51.320Z,76.90
2018-12-29T05:14:51.246Z,81.20
2018-12-29T05:15:51.158Z,90.90
2018-12-29T05:16:51.070Z,89.40
2018-12-29T05:17:50.985Z,77.90
2018-12-29T05:18:50.896Z,87.50
2018-12-29T05:19:50.821Z,72.30
2018-12-29T05:20:50.734Z,78.20
2018-12-29T05:21:50.648Z,82.90
2018-12-29T05:22:50.560Z,78.00
2018-12-29T05:23:50.484Z,77.30
2018-12-29T05:24:50.396Z,79.90
2018-12-29T05:25:50.310Z,75.10
2018-12-29T05:26:50.222Z,85.80
2018-12-29T05:27:50.134Z,84.90
2018-12-29T05:28:50.062Z,91.70
2018-12-29T05:29:49.972Z,86.50
2018-12-29T05:30:49.885Z,95.50
2018-12-29T05:31:49.799Z,80.40
2018-12-29T05:32:49.722Z,92.30
2018-12-29T05:33:49.642Z,82.70
2018-12-29T05:34:49.898Z,96.50
2018-12-29T05:35:49.460Z,82.40
2018-12-29T05:36:49.374Z,83.10
2018-12-29T05:37:49.299Z,89.20
2018-12-29T05:38:49.214Z,85.90
2018-12-29T05:39:49.123Z,85.40
2018-12-29T05:40:49.038Z,81.00
2018-12-29T05:41:48.962Z,83.00
2018-12-29T05:42:48.873Z,102.60
2018-12-29T05:43:48.787Z,79.30
2018-12-29T05:44:48.948Z,82.40
2018-12-29T05:45:48.624Z,81.70
2018-12-29T05:46:48.538Z,80.70
2018-12-29T05:47:48.449Z,83.30
2018-12-29T05:48:48.362Z,79.60
2018-12-29T05:49:48.276Z,84.50
2018-12-29T05:50:48.212Z,84.60
2018-12-29T05:51:48.112Z,88.40
2018-12-29T05:52:48.024Z,80.40
2018-12-29T05:53:47.938Z,87.90
2018-12-29T05:54:47.851Z,81.60
2018-12-29T05:55:47.775Z,83.40
2018-12-29T05:56:47.688Z,82.40
2018-12-29T05:57:47.601Z,92.40
2018-12-29T05:58:47.541Z,80.00
2018-12-29T05:59:47.440Z,80.20
2018-12-29T06:00:47.350Z,72.10
2018-12-29T06:01:47.264Z,82.50
2018-12-29T06:02:47.176Z,88.10
2018-12-29T06:03:47.100Z,74.80
2018-12-29T06:04:47.015Z,80.90
2018-12-29T06:05:46.926Z,81.60
2018-12-29T06:06:46.839Z,70.60
2018-12-29T06:07:46.752Z,69.20
2018-12-29T06:08:46.689Z,75.20
2018-12-29T06:09:46.589Z,81.60
2018-12-29T06:10:46.502Z,89.00
2018-12-29T06:11:46.418Z,81.20
2018-12-29T06:12:46.340Z,73.70
2018-12-29T06:13:46.253Z,76.90
2018-12-29T06:14:46.166Z,73.80
2018-12-29T06:15:46.090Z,78.60
2018-12-29T06:16:46.002Z,69.40
2018-12-29T06:17:45.916Z,71.00
2018-12-29T06:18:45.828Z,73.30
2018-12-29T06:19:45.743Z,74.40
2018-12-29T06:20:45.656Z,75.60
2018-12-29T06:21:45.577Z,77.30
2018-12-29T06:22:45.490Z,71.40
2018-12-29T06:23:45.402Z,84.00
2018-12-29T06:24:45.316Z,90.30
2018-12-29T06:25:45.241Z,81.30
2018-12-29T06:26:45.153Z,83.10
2018-12-29T06:27:45.066Z,78.60
2018-12-29T06:28:44.980Z,83.70
2018-12-29T06:29:44.891Z,74.40
2018-12-29T06:30:44.816Z,79.60
2018-12-29T06:31:44.729Z,81.60
2018-12-29T06:32:44.641Z,80.70
2018-12-29T06:33:44.554Z,79.10
2018-12-29T06:34:44.718Z,77.40
2018-12-29T06:35:44.392Z,77.10
2018-12-29T06:36:44.304Z,84.90
2018-12-29T06:37:44.217Z,76.40
2018-12-29T06:38:44.129Z,78.40
2018-12-29T06:39:44.067Z,78.20
2018-12-29T06:40:43.969Z,76.10
2018-12-29T06:41:43.880Z,80.40
2018-12-29T06:42:43.799Z,83.20
2018-12-29T06:43:43.706Z,79.50
2018-12-29T06:44:43.629Z,80.00
2018-12-29T06:45:43.544Z,78.20
2018-12-29T06:46:43.468Z,76.70
2018-12-29T06:47:43.372Z,79.80
2018-12-29T06:48:43.283Z,82.40
2018-12-29T06:49:43.205Z,77.60
2018-12-29T06:50:43.119Z,77.40
2018-12-29T06:51:43.031Z,79.50
2018-12-29T06:52:42.944Z,80.80
2018-12-29T06:53:42.871Z,79.30
2018-12-29T06:54:42.781Z,78.00
2018-12-29T06:55:42.699Z,79.80
2018-12-29T06:56:42.607Z,77.10
2018-12-29T06:57:42.522Z,78.30
2018-12-29T06:58:42.446Z,74.80
2018-12-29T06:59:42.369Z,77.70
2018-12-29T07:00:42.269Z,74.90
2018-12-29T07:01:42.182Z,76.10
2018-12-29T07:02:42.103Z,76.00
2018-12-29T07:03:42.020Z,78.60
2018-12-29T07:04:42.182Z,68.70
2018-12-29T07:05:41.846Z,76.80
2018-12-29T07:06:41.757Z,85.40
2018-12-29T07:07:41.682Z,77.40
2018-12-29T07:08:41.660Z,76.20
2018-12-29T07:09:41.507Z,75.60
2018-12-29T07:10:41.423Z,81.00
2018-12-29T07:11:41.334Z,75.20
2018-12-29T07:12:41.258Z,79.60
2018-12-29T07:13:41.172Z,81.00
2018-12-29T07:14:41.083Z,75.70
2018-12-29T07:15:41.037Z,80.30
2018-12-29T07:16:42.372Z,81.00
2018-12-29T07:17:40.834Z,77.30
2018-12-29T07:18:40.747Z,71.60
2018-12-29T07:19:40.659Z,77.70
2018-12-29T07:20:40.574Z,80.90
2018-12-29T07:21:40.497Z,76.30
2018-12-29T07:22:40.410Z,77.70
2018-12-29T07:23:40.322Z,72.70
2018-12-29T07:24:40.234Z,77.30
2018-12-29T07:25:40.148Z,77.20
2018-12-29T07:26:40.074Z,74.40
2018-12-29T07:27:39.984Z,77.50
2018-12-29T07:28:39.899Z,78.40
2018-12-29T07:29:39.810Z,71.20
2018-12-29T07:30:39.724Z,73.90
2018-12-29T07:31:39.648Z,78.10
2018-12-29T07:32:39.560Z,77.40
2018-12-29T07:33:39.474Z,79.00
2018-12-29T07:34:39.385Z,68.00
2018-12-29T07:35:39.311Z,70.60
2018-12-29T07:36:39.224Z,72.30
2018-12-29T07:37:39.135Z,73.50
2018-12-29T07:38:39.049Z,75.00
2018-12-29T07:39:38.962Z,67.50
2018-12-29T07:40:38.886Z,71.50
2018-12-29T07:41:38.800Z,69.50
2018-12-29T07:42:38.712Z,75.40
2018-12-29T07:43:38.624Z,69.20
2018-12-29T07:44:38.788Z,65.80
2018-12-29T07:45:38.462Z,65.90
2018-12-29T07:46:38.374Z,71.30
2018-12-29T07:47:38.287Z,64.60
2018-12-29T07:48:38.200Z,64.00
2018-12-29T07:49:38.125Z,65.20
2018-12-29T07:50:38.038Z,67.90
2018-12-29T07:51:37.951Z,72.00
2018-12-29T07:52:37.862Z,67.60
2018-12-29T07:53:37.776Z,65.80
2018-12-29T07:54:37.703Z,65.20
2018-12-29T07:55:37.617Z,62.40
2018-12-29T07:56:37.526Z,67.60
2018-12-29T07:57:37.437Z,62.40
2018-12-29T07:58:37.352Z,58.60
2018-12-29T07:59:37.278Z,64.20
2018-12-29T08:00:37.187Z,62.00
2018-12-29T08:01:37.102Z,66.80
2018-12-29T08:02:37.013Z,63.80
2018-12-29T08:03:36.939Z,63.20
2018-12-29T08:04:36.851Z,60.40
2018-12-29T08:05:36.766Z,62.40
2018-12-29T08:06:36.677Z,71.50
2018-12-29T08:07:36.589Z,69.70
2018-12-29T08:08:36.515Z,62.60
2018-12-29T08:09:36.427Z,63.00
2018-12-29T08:10:36.339Z,61.10
2018-12-29T08:11:36.252Z,58.60
2018-12-29T08:12:36.177Z,63.40
2018-12-29T08:13:36.090Z,60.30
2018-12-29T08:14:36.003Z,60.10
2018-12-29T08:15:35.914Z,62.70
2018-12-29T08:16:35.827Z,62.10
2018-12-29T08:17:35.752Z,64.50
2018-12-29T08:18:35.677Z,61.70
2018-12-29T08:19:35.831Z,61.60
2018-12-29T08:20:35.492Z,63.50
2018-12-29T08:21:35.406Z,68.80
2018-12-29T08:22:35.328Z,57.90
2018-12-29T08:23:35.244Z,60.10
2018-12-29T08:24:35.160Z,65.80
2018-12-29T08:25:35.068Z,60.70
2018-12-29T08:26:34.990Z,63.30
2018-12-29T08:27:34.903Z,67.40
2018-12-29T08:28:34.816Z,63.60
2018-12-29T08:29:34.729Z,64.20
2018-12-29T08:30:34.643Z,62.00
2018-12-29T08:31:34.567Z,63.20
2018-12-29T08:32:34.481Z,56.00
2018-12-29T08:33:34.404Z,65.50
2018-12-29T08:34:34.307Z,62.60
2018-12-29T08:35:34.218Z,61.20
2018-12-29T08:36:34.142Z,62.90
2018-12-29T08:37:34.055Z,62.60
2018-12-29T08:38:33.968Z,66.90
2018-12-29T08:39:34.129Z,59.00
2018-12-29T08:40:33.804Z,61.50
2018-12-29T08:41:33.718Z,63.40
2018-12-29T08:42:33.631Z,68.10
2018-12-29T08:43:33.557Z,64.80
2018-12-29T08:44:33.455Z,65.30
2018-12-29T08:45:33.389Z,62.10
2018-12-29T08:46:33.297Z,64.10
2018-12-29T08:47:33.206Z,64.50
2018-12-29T08:48:33.117Z,65.30
2018-12-29T08:49:33.055Z,60.00
2018-12-29T08:50:32.956Z,61.90
2018-12-29T08:51:32.868Z,66.60
2018-12-29T08:52:32.783Z,68.50
2018-12-29T08:53:32.694Z,67.00
2018-12-29T08:54:32.619Z,65.70
2018-12-29T08:55:32.532Z,66.50
2018-12-29T08:56:32.460Z,63.80
2018-12-29T08:57:32.356Z,69.80
2018-12-29T08:58:32.272Z,69.00
2018-12-29T08:59:32.194Z,67.10
2018-12-29T09:00:32.107Z,70.20
2018-12-29T09:01:32.021Z,70.20
2018-12-29T09:02:31.933Z,72.00
2018-12-29T09:03:31.858Z,72.20
2018-12-29T09:04:31.770Z,74.50
2018-12-29T09:05:31.687Z,66.80
2018-12-29T09:06:31.595Z,67.50
2018-12-29T09:07:31.519Z,68.70
2018-12-29T09:08:31.432Z,76.00
2018-12-29T09:09:31.358Z,76.70
2018-12-29T09:10:31.262Z,87.50
2018-12-29T09:11:31.171Z,82.70
2018-12-29T09:12:31.096Z,83.70
2018-12-29T09:13:31.009Z,87.20
2018-12-29T09:14:30.921Z,77.50
2018-12-29T09:15:30.836Z,82.60
2018-12-29T09:16:30.759Z,84.60
2018-12-29T09:17:30.675Z,80.50
2018-12-29T09:18:30.590Z,90.40
2018-12-29T09:19:30.496Z,82.30
2018-12-29T09:20:30.409Z,86.90
2018-12-29T09:21:30.369Z,87.80
2018-12-29T09:22:30.247Z,83.20
2018-12-29T09:23:30.160Z,80.50
2018-12-29T09:24:30.072Z,85.50
2018-12-29T09:25:29.996Z,87.90
2018-12-29T09:26:29.910Z,85.10
2018-12-29T09:27:29.822Z,95.00
2018-12-29T09:28:29.736Z,88.90
2018-12-29T09:29:29.647Z,95.40
2018-12-29T09:30:29.574Z,108.40
2018-12-29T09:31:29.486Z,93.90
2018-12-29T09:32:29.398Z,81.80
2018-12-29T09:33:29.311Z,90.50
2018-12-29T09:34:29.223Z,74.90
2018-12-29T09:35:29.148Z,74.00
2018-12-29T09:36:29.063Z,82.90
2018-12-29T09:37:28.974Z,79.60
2018-12-29T09:38:28.887Z,78.00
2018-12-29T09:39:28.800Z,80.40
2018-12-29T09:40:28.724Z,80.50
2018-12-29T09:41:28.641Z,94.60
2018-12-29T09:42:28.549Z,70.60
2018-12-29T09:43:28.461Z,77.70
2018-12-29T09:44:28.392Z,76.20
2018-12-29T09:45:28.298Z,74.00
2018-12-29T09:46:28.212Z,79.10
2018-12-29T09:47:28.124Z,79.80
2018-12-29T09:48:28.048Z,76.50
2018-12-29T09:49:27.964Z,86.20
2018-12-29T09:50:27.874Z,76.40
2018-12-29T09:51:27.787Z,71.80
2018-12-29T09:52:27.713Z,67.80
2018-12-29T09:53:27.629Z,72.50
2018-12-29T09:54:27.538Z,67.30
2018-12-29T09:55:27.450Z,79.00
2018-12-29T09:56:27.363Z,69.50
2018-12-29T09:57:27.288Z,74.30
2018-12-29T09:58:27.213Z,76.10
2018-12-29T09:59:27.118Z,68.60
2018-12-29T10:00:27.026Z,72.60
2018-12-29T10:01:26.942Z,72.40
2018-12-29T10:02:26.853Z,74.40
2018-12-29T10:03:26.776Z,84.70
2018-12-29T10:04:26.693Z,69.30
2018-12-29T10:05:26.603Z,69.60
2018-12-29T10:06:26.514Z,75.00
2018-12-29T10:07:26.439Z,71.30
2018-12-29T10:08:26.351Z,81.10
2018-12-29T10:09:26.264Z,84.80
2018-12-29T10:10:26.176Z,75.20
2018-12-29T10:11:26.091Z,65.50
2018-12-29T10:12:26.015Z,63.60
2018-12-29T10:13:25.927Z,79.20
2018-12-29T10:14:25.839Z,66.10
2018-12-29T10:15:25.752Z,68.10
2018-12-29T10:16:25.677Z,66.10
2018-12-29T10:17:27.152Z,64.60
2018-12-29T10:18:25.514Z,61.80
2018-12-29T10:19:25.416Z,59.40
2018-12-29T10:20:25.329Z,57.80
2018-12-29T10:21:25.252Z,60.10
2018-12-29T10:22:25.165Z,54.90
2018-12-29T10:23:25.078Z,69.50
2018-12-29T10:24:24.995Z,63.10
2018-12-29T10:25:24.915Z,64.60
2018-12-29T10:26:24.828Z,72.50
2018-12-29T10:27:24.742Z,63.80
2018-12-29T10:28:24.658Z,59.00
2018-12-29T10:29:24.579Z,61.30
2018-12-29T10:30:24.493Z,61.20
2018-12-29T10:31:24.403Z,71.90
2018-12-29T10:32:24.318Z,68.70
2018-12-29T10:33:24.230Z,68.50
2018-12-29T10:34:24.154Z,76.40
2018-12-29T10:35:24.069Z,58.50
2018-12-29T10:36:23.979Z,61.00
2018-12-29T10:37:23.893Z,69.20
2018-12-29T10:38:23.817Z,63.00
2018-12-29T10:39:23.979Z,55.90
2018-12-29T10:40:23.642Z,59.50
2018-12-29T10:41:23.556Z,60.20
2018-12-29T10:42:23.480Z,62.80
2018-12-29T10:43:23.393Z,64.30
2018-12-29T10:44:23.305Z,62.10
2018-12-29T10:45:23.219Z,60.00
2018-12-29T10:46:23.131Z,70.90
2018-12-29T10:47:23.056Z,65.40
2018-12-29T10:48:22.969Z,72.60
2018-12-29T10:49:22.881Z,62.60
2018-12-29T10:50:22.793Z,69.60
2018-12-29T10:51:22.719Z,68.00
2018-12-29T10:52:22.630Z,65.60
2018-12-29T10:53:22.544Z,67.40
2018-12-29T10:54:22.456Z,62.80
2018-12-29T10:55:22.381Z,57.10
2018-12-29T10:56:22.301Z,62.50
2018-12-29T10:57:22.207Z,55.80
2018-12-29T10:58:22.119Z,54.10
2018-12-29T10:59:22.044Z,65.20
2018-12-29T11:00:21.970Z,53.50
2018-12-29T11:01:21.869Z,56.40
2018-12-29T11:02:21.781Z,57.10
2018-12-29T11:03:21.718Z,52.80
2018-12-29T11:04:21.652Z,62.20
2018-12-29T11:05:21.532Z,53.70
2018-12-29T11:06:21.449Z,59.50
2018-12-29T11:07:21.359Z,54.30
2018-12-29T11:08:21.283Z,54.90
2018-12-29T11:09:21.196Z,60.20
2018-12-29T11:10:21.107Z,52.30
2018-12-29T11:11:21.021Z,54.10
2018-12-29T11:12:20.945Z,59.50
2018-12-29T11:13:20.860Z,52.60
2018-12-29T11:14:20.773Z,57.10
2018-12-29T11:15:20.696Z,52.40
2018-12-29T11:16:20.615Z,57.80
2018-12-29T11:17:20.522Z,58.10
2018-12-29T11:18:20.435Z,56.10
2018-12-29T11:19:20.347Z,53.60
2018-12-29T11:20:20.271Z,55.10
2018-12-29T11:21:20.184Z,56.40
2018-12-29T11:22:20.097Z,61.70
2018-12-29T11:23:20.011Z,63.10
2018-12-29T11:24:19.947Z,57.20
2018-12-29T11:25:19.848Z,58.80
2018-12-29T11:26:19.759Z,56.20
2018-12-29T11:27:19.679Z,64.40
2018-12-29T11:28:19.597Z,67.70
2018-12-29T11:29:19.774Z,64.30
2018-12-29T11:30:19.424Z,63.20
2018-12-29T11:31:19.348Z,60.70
2018-12-29T11:32:19.260Z,68.70
2018-12-29T11:33:19.179Z,67.40
2018-12-29T11:34:19.086Z,66.90
2018-12-29T11:35:18.998Z,71.90
2018-12-29T11:36:18.925Z,74.90
2018-12-29T11:37:18.835Z,62.60
2018-12-29T11:38:18.752Z,61.40
2018-12-29T11:39:18.662Z,60.80
2018-12-29T11:40:18.586Z,65.50
2018-12-29T11:41:18.499Z,59.30
2018-12-29T11:42:18.412Z,62.50
2018-12-29T11:43:18.342Z,62.40
2018-12-29T11:44:18.250Z,63.30
2018-12-29T11:45:18.162Z,67.20
2018-12-29T11:46:18.075Z,63.20
2018-12-29T11:47:18.001Z,63.40
2018-12-29T11:48:17.912Z,57.60
2018-12-29T11:49:18.266Z,56.40
2018-12-29T11:50:17.737Z,68.90
2018-12-29T11:51:17.663Z,60.20
2018-12-29T11:52:17.576Z,69.20
2018-12-29T11:53:17.487Z,69.20
2018-12-29T11:54:17.400Z,62.90
2018-12-29T11:55:17.330Z,64.80
2018-12-29T11:56:17.238Z,67.20
2018-12-29T11:57:17.151Z,72.30
2018-12-29T11:58:17.065Z,65.60
2018-12-29T11:59:17.288Z,66.00
2018-12-29T12:00:16.902Z,63.50
2018-12-29T12:01:16.814Z,61.60
2018-12-29T12:02:24.213Z,62.40
2018-12-29T12:03:16.653Z,59.60
2018-12-29T12:04:16.813Z,63.00
2018-12-29T12:05:16.478Z,65.00
2018-12-29T12:06:16.401Z,56.70
2018-12-29T12:07:16.313Z,60.20
2018-12-29T12:08:16.231Z,55.30
2018-12-29T12:09:16.151Z,58.70
2018-12-29T12:10:16.064Z,56.40
2018-12-29T12:11:15.978Z,61.40
2018-12-29T12:12:15.890Z,62.00
2018-12-29T12:13:15.814Z,57.70
2018-12-29T12:14:15.728Z,58.50
2018-12-29T12:15:15.641Z,56.30
2018-12-29T12:16:15.564Z,57.30
2018-12-29T12:17:15.479Z,57.20
2018-12-29T12:18:16.531Z,57.60
2018-12-29T12:19:15.302Z,56.00
2018-12-29T12:20:15.217Z,53.60
2018-12-29T12:21:15.140Z,55.00
2018-12-29T12:22:15.054Z,57.40
2018-12-29T12:23:14.965Z,48.50
2018-12-29T12:24:14.905Z,47.60
2018-12-29T12:25:14.803Z,50.10
2018-12-29T12:26:14.715Z,50.40
2018-12-29T12:27:14.628Z,50.30
2018-12-29T12:28:14.554Z,50.20
2018-12-29T12:29:14.478Z,46.60
2018-12-29T12:30:14.380Z,50.90
2018-12-29T12:31:14.291Z,44.60
2018-12-29T12:32:14.219Z,48.20
2018-12-29T12:33:14.130Z,48.70
2018-12-29T12:34:14.041Z,52.90
2018-12-29T12:35:13.966Z,50.90
2018-12-29T12:36:13.880Z,52.90
2018-12-29T12:37:13.793Z,49.70
2018-12-29T12:38:13.705Z,52.40
2018-12-29T12:39:13.880Z,48.00
2018-12-29T12:40:13.543Z,45.30
2018-12-29T12:41:13.456Z,47.00
2018-12-29T12:42:13.367Z,44.20
2018-12-29T12:43:13.293Z,48.60
2018-12-29T12:44:13.205Z,40.80
2018-12-29T12:45:13.117Z,47.00
2018-12-29T12:46:13.033Z,49.60
2018-12-29T12:47:12.956Z,46.50
2018-12-29T12:48:12.868Z,48.60
2018-12-29T12:49:12.781Z,48.90
2018-12-29T12:50:12.709Z,50.00
2018-12-29T12:51:12.618Z,46.60